CDT,Max TemperatureF,Mean TemperatureF,Min TemperatureF,Max Dew PointF,MeanDew PointF,Min DewpointF,Max Humidity, Mean Humidity, Min Humidity, Max Sea Level PressureIn, Mean Sea Level PressureIn, Min Sea Level PressureIn, Max VisibilityMiles, Mean VisibilityMiles, Min VisibilityMiles, Max Wind SpeedMPH, Mean Wind SpeedMPH, Max Gust SpeedMPH,PrecipitationIn, CloudCover, Events, WindDirDegrees
2013-10-1,74,57,40,54,40,29,82,44,22,29.97,29.83,29.73,10,10,10,18,8,24,0.00,0,,258
2013-10-2,72,51,31,43,36,30,96,59,23,30.10,30.03,29.97,10,10,10,9,1,,0.00,1,,171
2013-10-3,62,54,45,55,50,40,96,85,51,30.05,29.95,29.90,10,8,0,9,3,,1.08,5,Fog-Rain,49
2013-10-4,54,52,50,52,51,49,96,93,88,30.07,30.03,29.95,10,7,2,10,5,16,0.33,8,Rain,62
2013-10-5,57,54,52,56,53,50,97,95,94,30.03,29.88,29.72,10,6,2,13,6,18,2.15,8,Rain,86
2013-10-6,57,52,46,53,45,40,97,82,51,29.73,29.69,29.65,10,9,2,9,3,20,0.07,7,Rain,280
2013-10-7,59,46,33,45,38,32,97,79,42,30.04,29.87,29.70,10,9,0,15,6,23,0.00,2,Fog,295
2013-10-8,71,50,31,45,39,30,98,66,36,30.08,30.04,29.98,10,10,7,10,2,22,0.00,0,,168
2013-10-9,70,58,47,50,46,43,87,67,43,30.15,30.11,30.04,10,10,10,8,2,,0.00,0,,187
2013-10-10,69,51,33,47,42,32,97,72,39,30.15,30.10,30.04,10,9,2,8,1,,0.00,0,,153
2013-10-11,72,56,39,54,49,38,96,75,46,30.06,29.97,29.86,10,9,4,13,4,23,0.00,2,,138
2013-10-12,63,54,46,54,45,36,84,66,47,30.08,29.91,29.82,10,10,10,12,7,22,0.00,5,,210
2013-10-13,56,42,29,41,35,28,96,72,38,30.41,30.30,30.09,10,10,10,10,5,,0.00,4,,280
2013-10-14,57,41,25,42,33,24,96,73,42,30.44,30.33,30.16,10,10,10,8,2,,0.00,0,,114
2013-10-15,52,48,45,51,46,40,97,92,77,30.14,29.84,29.69,10,5,1,10,5,18,1.11,7,Rain,130
2013-10-16,45,38,29,45,39,29,97,90,80,29.90,29.82,29.70,10,8,2,12,4,18,0.11,7,Rain,314
2013-10-17,54,40,25,43,32,24,99,84,46,29.89,29.80,29.73,10,7,0,8,1,,0.00,4,Fog-Rain,292
2013-10-18,42,35,27,41,36,27,98,93,79,29.88,29.81,29.73,10,6,2,15,2,18,0.37,6,Rain,314
2013-10-19,46,36,27,36,32,27,97,91,58,29.83,29.72,29.63,10,9,1,14,1,21,0.05,6,Rain,251
2013-10-20,40,34,29,38,33,29,99,95,78,29.78,29.72,29.65,10,5,0,12,1,,0.19,7,Fog-Rain,152
2013-10-21,33,30,28,32,26,20,96,81,61,29.81,29.78,29.68,10,9,3,14,9,22,0.02,8,Rain-Snow,270
2013-10-22,39,32,27,29,26,23,90,76,60,29.95,29.89,29.78,10,10,7,14,9,22,0.00,7,Snow,306
2013-10-23,36,30,25,27,23,19,90,74,54,29.96,29.92,29.90,10,10,10,16,4,21,0.00,7,,285
2013-10-24,39,34,29,27,24,22,86,71,56,30.22,30.10,29.96,10,10,7,14,8,20,0.00,7,Snow,288
2013-10-25,49,37,25,36,27,20,90,68,45,30.24,30.03,29.66,10,10,10,12,3,21,0.00,6,,216
2013-10-26,47,40,33,36,31,27,90,70,58,30.01,29.86,29.65,10,10,1,17,9,28,0.01,7,Rain,307
2013-10-27,52,41,30,32,29,27,88,69,39,30.12,29.91,29.78,10,10,10,13,3,21,0.00,4,,276
2013-10-28,39,32,25,29,20,14,85,64,37,30.44,30.35,30.13,10,10,7,13,7,23,0.00,2,,45
2013-10-29,35,26,17,33,25,16,94,83,67,30.43,30.30,30.13,10,9,4,6,1,,0.02,6,Rain-Snow,107
2013-10-30,48,41,34,48,40,34,97,97,94,30.13,29.97,29.71,3,1,0,6,1,,0.06,8,Fog-Rain-Snow,129
2013-10-31,53,48,43,52,48,43,98,97,95,29.70,29.41,29.22,10,3,0,10,1,16,0.24,8,Fog-Rain,275